Adair, Illinois
Current Conditions -  °F | °C
As of 3:35 AM on Saturday 25 Oct 2014 (Local Time) from KMQB Reporting Station
Moderate Fog Moderate Fog  
Wind Chill:   Ceiling: 200
Heat Index: 10°   Visibility: 0.25mi
Dew Point: 10°   Wind: 6mph
Humidity: 100%   Direction: 260°W
Pressure: 29.97"   Gusts: NA
Location:  40.42°N, 90.5°W
Report Text: KMQB 250835Z AUTO 26005KT 1/4SM FG VV002 10/10 A2997 RMK AO2 T00990099
Loading
Personal Weather Stations






























Interactive Weather Map
Tropical Storm Tracking
New forecast layout! Learn more

10-Day Weather Forecast

Advertisements
Track Severe Weather on mobile